createdAt,value
2023-02-25T00:01:34.724Z,99849.06
2023-02-25T00:04:01.179Z,99851.66
2023-02-25T00:06:27.819Z,99857.66
2023-02-25T00:08:55.546Z,99862.88
2023-02-25T00:11:24.060Z,99857.66
2023-02-25T00:13:51.086Z,99850.78
2023-02-25T00:16:18.484Z,99854.25
2023-02-25T00:18:46.743Z,99853.38
2023-02-25T00:21:15.757Z,99847.34
2023-02-25T00:23:44.498Z,99849.91
2023-02-25T00:26:11.728Z,99846.47
2023-02-25T00:28:40.265Z,99849.06
2023-02-25T00:31:09.218Z,99841.31
2023-02-25T00:33:36.086Z,99845.66
2023-02-25T00:36:06.549Z,99841.34
2023-02-25T00:38:33.467Z,99842.19
2023-02-25T00:41:06.956Z,99843.91
2023-02-25T00:43:33.427Z,99837.03
2023-02-25T00:46:00.067Z,99849.09
2023-02-25T00:48:26.613Z,99843.06
2023-02-25T00:50:53.058Z,99836.16
2023-02-25T00:53:19.585Z,99843.91
2023-02-25T00:55:46.090Z,99843.06
2023-02-25T00:58:12.588Z,99845.66
2023-02-25T01:00:51.373Z,99842.19
2023-02-25T01:03:18.420Z,99849.09
2023-02-25T01:05:49.324Z,99838.72
2023-02-25T01:08:18.054Z,99834.44
2023-02-25T01:10:45.562Z,99847.38
2023-02-25T01:13:12.408Z,99856.88
2023-02-25T01:15:39.033Z,99853.44
2023-02-25T01:18:06.607Z,99846.56
2023-02-25T01:20:37.081Z,99849.16
2023-02-25T01:23:03.556Z,99843.13
2023-02-25T01:25:30.239Z,99849.13
2023-02-25T01:27:57.752Z,99852.59
2023-02-25T01:30:24.179Z,99861.22
2023-02-25T01:32:50.752Z,99858.63
2023-02-25T01:35:17.354Z,99859.50
2023-02-25T01:37:47.300Z,99857.78
2023-02-25T01:40:17.913Z,99864.69
2023-02-25T01:42:46.009Z,99860.38
2023-02-25T01:45:18.342Z,99855.22
2023-02-25T01:47:48.958Z,99850.03
2023-02-25T01:50:15.723Z,99848.31
2023-02-25T01:52:42.556Z,99852.63
2023-02-25T01:55:11.014Z,99862.13
2023-02-25T01:57:37.627Z,99861.25
2023-02-25T02:00:16.378Z,99863.84
2023-02-25T02:02:49.494Z,99861.25
2023-02-25T02:05:16.920Z,99859.53
2023-02-25T02:07:43.757Z,99858.69
2023-02-25T02:10:10.801Z,99857.81
2023-02-25T02:12:41.399Z,99863.00
2023-02-25T02:15:14.261Z,99855.25
2023-02-25T02:17:56.677Z,99862.16
2023-02-25T02:20:46.456Z,99863.03
2023-02-25T02:23:15.856Z,99860.41
2023-02-25T02:26:17.637Z,99857.84
2023-02-25T02:29:21.826Z,99872.50
2023-02-25T02:32:08.854Z,99861.25
2023-02-25T02:34:56.654Z,99858.66
2023-02-25T02:37:44.907Z,99869.91
2023-02-25T02:40:49.084Z,99862.97
2023-02-25T02:43:30.900Z,99850.91
2023-02-25T02:46:09.575Z,99853.50
2023-02-25T02:49:03.383Z,99850.06
2023-02-25T02:51:36.718Z,99849.16
2023-02-25T02:54:06.001Z,99850.91
2023-02-25T02:56:35.900Z,99854.34
2023-02-25T02:59:06.814Z,99848.31
2023-02-25T03:01:46.285Z,99857.81
2023-02-25T03:04:17.096Z,99857.81
2023-02-25T03:06:47.458Z,99856.09
2023-02-25T03:09:24.553Z,99861.28
2023-02-25T03:11:51.308Z,99858.69
2023-02-25T03:14:18.395Z,99860.44
2023-02-25T03:16:51.202Z,99844.03
2023-02-25T03:19:32.124Z,99856.09
2023-02-25T03:22:06.558Z,99869.91
2023-02-25T03:24:39.819Z,99862.13
2023-02-25T03:27:34.198Z,99864.75
2023-02-25T03:30:13.226Z,99873.34
2023-02-25T03:32:49.378Z,99875.94
2023-02-25T03:35:18.974Z,99873.38
2023-02-25T03:37:50.755Z,99888.03
2023-02-25T03:40:20.100Z,99880.25
2023-02-25T03:42:53.453Z,99878.53
2023-02-25T03:45:21.562Z,99884.56
2023-02-25T03:47:48.658Z,99869.91
2023-02-25T03:50:26.214Z,99877.69
2023-02-25T03:52:52.660Z,99877.66
2023-02-25T03:55:19.979Z,99885.41
2023-02-25T03:57:49.904Z,99886.28
2023-02-25T04:00:30.154Z,99884.56
2023-02-25T04:02:56.774Z,99890.59
2023-02-25T04:05:27.738Z,99888.00
2023-02-25T04:07:55.781Z,99891.47
2023-02-25T04:10:22.263Z,99888.88
2023-02-25T04:12:51.094Z,99888.88
2023-02-25T04:15:19.279Z,99900.06
2023-02-25T04:17:45.787Z,99892.31
2023-02-25T04:20:14.282Z,99907.84
2023-02-25T04:22:40.897Z,99904.38
2023-02-25T04:25:08.309Z,99906.13
2023-02-25T04:27:35.034Z,99907.84
2023-02-25T04:30:01.870Z,99919.91
2023-02-25T04:32:28.429Z,99910.44
2023-02-25T04:34:54.967Z,99912.16
2023-02-25T04:37:21.385Z,99912.16
2023-02-25T04:39:47.895Z,99915.59
2023-02-25T04:42:14.352Z,99903.53
2023-02-25T04:44:40.823Z,99908.72
2023-02-25T04:47:08.330Z,99918.19
2023-02-25T04:49:44.913Z,99904.41
2023-02-25T04:52:13.076Z,99906.09
2023-02-25T04:54:39.590Z,99903.53
2023-02-25T04:57:07.669Z,99899.22
2023-02-25T04:59:34.146Z,99906.13
2023-02-25T05:02:01.008Z,99908.69
2023-02-25T05:04:27.546Z,99904.41
2023-02-25T05:06:54.032Z,99907.81
2023-02-25T05:09:21.246Z,99907.81
2023-02-25T05:11:47.871Z,99902.66
2023-02-25T05:14:14.540Z,99894.03
2023-02-25T05:16:40.998Z,99908.69
2023-02-25T05:19:07.476Z,99901.78
2023-02-25T05:21:33.936Z,99900.91
2023-02-25T05:24:02.147Z,99897.47
2023-02-25T05:26:28.658Z,99887.16
2023-02-25T05:28:57.212Z,99902.66
2023-02-25T05:31:25.118Z,99895.75
2023-02-25T05:33:52.463Z,99902.66
2023-02-25T05:36:19.698Z,99905.25
2023-02-25T05:38:46.740Z,99916.47
2023-02-25T05:41:14.176Z,99906.97
2023-02-25T05:43:41.657Z,99912.16
2023-02-25T05:46:11.957Z,99905.25
2023-02-25T05:48:40.655Z,99912.16
2023-02-25T05:51:16.957Z,99904.38
2023-02-25T05:53:44.755Z,99902.66
2023-02-25T05:56:13.832Z,99912.16
2023-02-25T05:58:40.397Z,99918.22
2023-02-25T06:01:13.678Z,99925.09
2023-02-25T06:03:41.697Z,99920.78
2023-02-25T06:06:08.423Z,99924.25
2023-02-25T06:08:35.061Z,99919.94
2023-02-25T06:11:02.167Z,99921.66
2023-02-25T06:13:28.820Z,99917.34
2023-02-25T06:15:55.320Z,99919.06
2023-02-25T06:18:21.941Z,99917.31
2023-02-25T06:20:48.614Z,99914.75
2023-02-25T06:23:15.065Z,99926.81
2023-02-25T06:25:41.512Z,99924.22
2023-02-25T06:28:07.969Z,99922.50
2023-02-25T06:30:34.417Z,99932.84
2023-02-25T06:33:00.932Z,99944.06
2023-02-25T06:35:27.741Z,99944.06
2023-02-25T06:37:59.505Z,99948.38
2023-02-25T06:40:28.677Z,99939.75
2023-02-25T06:42:55.129Z,99940.59
2023-02-25T06:45:21.649Z,99949.25
2023-02-25T06:47:48.078Z,99957.00
2023-02-25T06:50:14.548Z,99960.44
2023-02-25T06:52:41.177Z,99965.63
2023-02-25T06:55:08.297Z,99963.03
2023-02-25T06:57:35.980Z,99965.59
2023-02-25T07:00:04.119Z,99956.13
2023-02-25T07:02:30.501Z,99975.06
2023-02-25T07:04:57.099Z,99958.72
2023-02-25T07:07:23.911Z,99961.28
2023-02-25T07:09:50.419Z,99973.38
2023-02-25T07:12:16.852Z,99976.81
2023-02-25T07:14:43.486Z,99977.66
2023-02-25T07:17:09.973Z,99979.38
2023-02-25T07:19:36.472Z,99983.72
2023-02-25T07:22:03.254Z,99987.97
2023-02-25T07:24:29.959Z,99988.84
2023-02-25T07:26:56.530Z,99981.97
2023-02-25T07:29:23.566Z,99985.41
2023-02-25T07:31:50.118Z,99981.09
2023-02-25T07:34:16.691Z,99981.09
2023-02-25T07:36:43.098Z,99974.19
2023-02-25T07:39:12.071Z,99981.06
2023-02-25T07:41:39.347Z,99975.91
2023-02-25T07:44:06.504Z,99984.53
2023-02-25T07:46:33.283Z,99989.69
2023-02-25T07:48:59.848Z,99990.53
2023-02-25T07:51:26.819Z,99995.72
2023-02-25T07:53:55.600Z,99990.56
2023-02-25T07:56:24.375Z,99995.75
2023-02-25T07:58:51.186Z,99994.00
2023-02-25T08:01:24.555Z,99994.00
2023-02-25T08:03:53.019Z,100008.66
2023-02-25T08:06:20.953Z,100000.91
2023-02-25T08:08:48.032Z,100000.06
2023-02-25T08:11:14.779Z,100000.06
2023-02-25T08:13:41.507Z,99998.31
2023-02-25T08:16:10.790Z,100001.78
2023-02-25T08:18:38.086Z,100000.06
2023-02-25T08:21:05.118Z,99999.19
2023-02-25T08:23:31.627Z,100012.13
2023-02-25T08:25:58.867Z,100008.69
2023-02-25T08:28:27.216Z,100006.94
2023-02-25T08:30:54.607Z,100013.84
2023-02-25T08:33:21.770Z,100018.16
2023-02-25T08:35:48.194Z,100025.94
2023-02-25T08:38:14.598Z,100027.66
2023-02-25T08:40:41.850Z,100031.97
2023-02-25T08:43:09.687Z,100030.25
2023-02-25T08:45:42.673Z,100036.28
2023-02-25T08:48:09.864Z,100040.63
2023-02-25T08:50:36.325Z,100049.25
2023-02-25T08:53:02.776Z,100044.94
2023-02-25T08:55:29.316Z,100037.16
2023-02-25T08:57:55.788Z,100042.34
2023-02-25T09:00:22.721Z,100030.25
2023-02-25T09:02:49.546Z,100033.69
2023-02-25T09:05:16.098Z,100027.66
2023-02-25T09:07:42.517Z,100033.69
2023-02-25T09:10:10.179Z,100017.28
2023-02-25T09:12:38.174Z,100025.00
2023-02-25T09:15:05.582Z,100037.94
2023-02-25T09:17:32.024Z,100035.31
2023-02-25T09:20:01.209Z,100041.28
2023-02-25T09:22:28.297Z,100054.25
2023-02-25T09:24:55.351Z,100060.25
2023-02-25T09:27:21.780Z,100055.94
2023-02-25T09:29:48.305Z,100054.22
2023-02-25T09:32:20.617Z,100051.66
2023-02-25T09:34:49.189Z,100055.09
2023-02-25T09:37:16.683Z,100063.72
2023-02-25T09:39:43.205Z,100064.53
2023-02-25T09:42:22.240Z,100063.63
2023-02-25T09:44:53.317Z,100063.59
2023-02-25T09:47:30.417Z,100067.09
2023-02-25T09:49:59.944Z,100066.25
2023-02-25T09:52:32.021Z,100075.75
2023-02-25T09:55:22.817Z,100077.47
2023-02-25T09:58:12.228Z,100086.94
2023-02-25T10:01:06.069Z,100097.28
2023-02-25T10:03:58.657Z,100094.75
2023-02-25T10:06:35.706Z,100099.94
2023-02-25T10:09:17.384Z,100112.91
2023-02-25T10:12:15.908Z,100126.84
2023-02-25T10:14:42.340Z,100113.06
2023-02-25T10:17:37.950Z,100120.84
2023-02-25T10:20:26.288Z,100123.41
2023-02-25T10:23:05.849Z,100162.25
2023-02-25T10:25:37.714Z,100146.69
2023-02-25T10:28:10.341Z,100166.50
2023-02-25T10:30:59.298Z,100160.44
2023-02-25T10:33:28.278Z,100167.38
2023-02-25T10:36:08.212Z,100174.25
2023-02-25T10:38:37.901Z,100180.25
2023-02-25T10:41:05.332Z,100162.13
2023-02-25T10:43:34.434Z,100164.69
2023-02-25T10:46:35.935Z,100170.78
2023-02-25T10:49:16.225Z,100172.50
2023-02-25T10:52:03.478Z,100179.44
2023-02-25T10:54:35.571Z,100181.19
2023-02-25T10:57:09.107Z,100187.19
2023-02-25T10:59:39.509Z,100187.19
2023-02-25T11:02:21.251Z,100184.59
2023-02-25T11:04:49.125Z,100183.75
2023-02-25T11:07:40.613Z,100186.31
2023-02-25T11:10:13.275Z,100183.75
2023-02-25T11:12:52.993Z,100177.75
2023-02-25T11:15:46.180Z,100164.81
2023-02-25T11:18:27.784Z,100170.88
2023-02-25T11:21:01.023Z,100168.28
2023-02-25T11:23:48.382Z,100161.38
2023-02-25T11:26:41.820Z,100180.34
2023-02-25T11:29:38.391Z,100170.00
2023-02-25T11:32:20.542Z,100174.28
2023-02-25T11:35:05.450Z,100167.38
2023-02-25T11:37:37.800Z,100164.78
2023-02-25T11:40:31.128Z,100167.41
2023-02-25T11:43:06.808Z,100167.34
2023-02-25T11:45:34.584Z,100171.63
2023-02-25T11:48:04.474Z,100168.16
2023-02-25T11:50:54.396Z,100173.34
2023-02-25T11:53:35.822Z,100177.69
2023-02-25T11:56:19.459Z,100174.22
2023-02-25T11:59:04.334Z,100173.34
2023-02-25T12:02:01.804Z,100180.19
2023-02-25T12:04:56.917Z,100162.00
2023-02-25T12:08:12.949Z,100171.44
2023-02-25T12:10:49.183Z,100162.81
2023-02-25T12:13:49.163Z,100167.19
2023-02-25T12:16:41.007Z,100176.72
2023-02-25T12:19:24.108Z,100168.03
2023-02-25T12:22:15.476Z,100164.44
2023-02-25T12:24:49.131Z,100166.97
2023-02-25T12:27:38.288Z,100196.53
2023-02-25T12:30:33.726Z,100194.09
2023-02-25T12:33:17.348Z,100201.94
2023-02-25T12:36:12.266Z,100211.44
2023-02-25T12:39:12.684Z,100208.84
2023-02-25T12:42:12.031Z,100199.34
2023-02-25T12:44:56.820Z,100199.34
2023-02-25T12:47:52.751Z,100206.25
2023-02-25T12:50:51.472Z,100211.41
2023-02-25T12:53:31.291Z,100194.16
2023-02-25T12:56:19.513Z,100198.44
2023-02-25T12:59:14.314Z,100200.16
2023-02-25T13:02:12.752Z,100201.84
2023-02-25T13:05:06.631Z,100183.66
2023-02-25T13:07:48.197Z,100193.13
2023-02-25T13:10:30.764Z,100192.22
2023-02-25T13:13:17.048Z,100188.66
2023-02-25T13:15:55.670Z,100205.78
2023-02-25T13:18:35.650Z,100205.78
2023-02-25T13:21:18.645Z,100210.22
2023-02-25T13:23:57.965Z,100209.44
2023-02-25T13:26:50.919Z,100209.28
2023-02-25T13:29:37.792Z,100215.72
2023-02-25T13:32:28.833Z,100211.00
2023-02-25T13:35:13.515Z,100205.34
2023-02-25T13:37:54.735Z,100214.91
2023-02-25T13:40:30.321Z,100217.13
2023-02-25T13:43:13.450Z,100216.28
2023-02-25T13:46:09.909Z,100217.00
2023-02-25T13:49:14.042Z,100233.00
2023-02-25T13:52:13.313Z,100234.03
2023-02-25T13:55:04.153Z,100240.78
2023-02-25T13:57:50.405Z,100240.09
2023-02-25T14:00:38.118Z,100244.44
2023-02-25T14:03:42.054Z,100229.59
2023-02-25T14:06:35.675Z,100245.03
2023-02-25T14:09:26.916Z,100250.91
2023-02-25T14:12:16.046Z,100240.44
2023-02-25T14:14:48.615Z,100246.44
2023-02-25T14:17:47.481Z,100244.19
2023-02-25T14:20:36.582Z,100262.53
2023-02-25T14:23:21.063Z,100264.41
2023-02-25T14:25:53.968Z,100271.44
2023-02-25T14:28:41.780Z,100261.22
2023-02-25T14:31:14.492Z,100271.66
2023-02-25T14:34:18.361Z,100283.78
2023-02-25T14:36:44.734Z,100281.06
2023-02-25T14:39:55.791Z,100274.94
2023-02-25T14:42:36.636Z,100282.63
2023-02-25T14:45:09.067Z,100290.47
2023-02-25T14:47:57.861Z,100286.09
2023-02-25T14:50:33.264Z,100296.59
2023-02-25T14:53:25.457Z,100308.75
2023-02-25T14:56:10.225Z,100301.06
2023-02-25T14:58:49.203Z,100302.81
2023-02-25T15:01:34.477Z,100309.69
2023-02-25T15:04:23.005Z,100309.66
2023-02-25T15:07:07.526Z,100307.91
2023-02-25T15:09:55.297Z,100312.25
2023-02-25T15:12:28.669Z,100309.69
2023-02-25T15:15:23.302Z,100311.44
2023-02-25T15:18:01.488Z,100317.50
2023-02-25T15:20:41.482Z,100310.63
2023-02-25T15:23:16.009Z,100309.75
2023-02-25T15:25:50.651Z,100319.28
2023-02-25T15:28:29.284Z,100319.28
2023-02-25T15:30:58.924Z,100324.44
2023-02-25T15:33:47.682Z,100321.00
2023-02-25T15:36:14.059Z,100333.13
2023-02-25T15:38:43.546Z,100335.69
2023-02-25T15:41:28.888Z,100346.09
2023-02-25T15:44:08.671Z,100351.28
2023-02-25T15:46:35.168Z,100353.88
2023-02-25T15:49:21.903Z,100350.44
2023-02-25T15:51:55.185Z,100355.59
2023-02-25T15:54:30.559Z,100351.31
2023-02-25T15:56:58.134Z,100367.72
2023-02-25T15:59:48.120Z,100371.19
2023-02-25T16:02:29.886Z,100378.97
2023-02-25T16:05:02.642Z,100375.50
2023-02-25T16:08:04.898Z,100373.81
2023-02-25T16:10:39.792Z,100390.22
2023-02-25T16:13:16.270Z,100383.31
2023-02-25T16:15:55.374Z,100394.53
2023-02-25T16:18:45.157Z,100415.28
2023-02-25T16:21:22.661Z,100406.63
2023-02-25T16:23:49.517Z,100413.53
2023-02-25T16:26:31.289Z,100410.09
2023-02-25T16:28:57.677Z,100410.06
2023-02-25T16:31:36.279Z,100416.09
2023-02-25T16:34:09.075Z,100414.38
2023-02-25T16:36:42.335Z,100420.41
2023-02-25T16:39:29.049Z,100423.00
2023-02-25T16:41:55.734Z,100438.50
2023-02-25T16:44:30.055Z,100438.50
2023-02-25T16:46:56.873Z,100436.75
2023-02-25T16:49:30.407Z,100445.38
2023-02-25T16:51:58.218Z,100454.84
2023-02-25T16:54:33.362Z,100449.69
2023-02-25T16:57:03.260Z,100457.41
2023-02-25T16:59:35.560Z,100466.91
2023-02-25T17:02:05.983Z,100471.19
2023-02-25T17:04:35.343Z,100477.19
2023-02-25T17:07:08.894Z,100473.72
2023-02-25T17:09:36.030Z,100476.31
2023-02-25T17:12:03.755Z,100477.13
2023-02-25T17:14:31.597Z,100483.16
2023-02-25T17:16:58.950Z,100484.03
2023-02-25T17:19:26.677Z,100481.44
2023-02-25T17:21:58.736Z,100497.78
2023-02-25T17:24:31.821Z,100496.88
2023-02-25T17:26:59.484Z,100502.91
2023-02-25T17:29:35.289Z,100514.06
2023-02-25T17:32:14.818Z,100507.16
2023-02-25T17:34:43.034Z,100512.31
2023-02-25T17:37:16.222Z,100513.97
2023-02-25T17:39:45.605Z,100513.06
2023-02-25T17:42:35.914Z,100521.66
2023-02-25T17:45:07.259Z,100523.38
2023-02-25T17:47:35.449Z,100525.06
2023-02-25T17:50:29.364Z,100528.50
2023-02-25T17:52:56.100Z,100520.72
2023-02-25T17:55:33.237Z,100536.25
2023-02-25T17:58:02.238Z,100537.13
2023-02-25T18:00:36.468Z,100544.03
2023-02-25T18:03:22.030Z,100550.03
2023-02-25T18:06:00.306Z,100556.00
2023-02-25T18:08:29.775Z,100556.00
2023-02-25T18:11:17.245Z,100555.16
2023-02-25T18:13:43.915Z,100561.09
2023-02-25T18:16:26.430Z,100567.97
2023-02-25T18:18:54.251Z,100570.50
2023-02-25T18:21:20.713Z,100573.06
2023-02-25T18:23:50.992Z,100572.19
2023-02-25T18:26:25.117Z,100580.78
2023-02-25T18:28:52.902Z,100595.41
2023-02-25T18:31:20.288Z,100596.25
2023-02-25T18:33:47.222Z,100595.38
2023-02-25T18:36:23.524Z,100594.50
2023-02-25T18:38:52.524Z,100595.28
2023-02-25T18:41:19.004Z,100596.09
2023-02-25T18:43:45.598Z,100604.72
2023-02-25T18:46:12.205Z,100608.97
2023-02-25T18:48:38.833Z,100615.00
2023-02-25T18:51:11.513Z,100614.09
2023-02-25T18:53:38.107Z,100614.94
2023-02-25T18:56:04.937Z,100610.59
2023-02-25T18:58:31.473Z,100619.19
2023-02-25T19:01:00.703Z,100622.53
2023-02-25T19:03:39.004Z,100625.09
2023-02-25T19:06:06.189Z,100619.91
2023-02-25T19:08:32.763Z,100627.59
2023-02-25T19:10:59.350Z,100630.16
2023-02-25T19:13:30.241Z,100633.63
2023-02-25T19:15:57.998Z,100630.16
2023-02-25T19:18:28.367Z,100644.78
2023-02-25T19:20:55.291Z,100643.03
2023-02-25T19:23:22.503Z,100649.84
2023-02-25T19:25:58.018Z,100642.94
2023-02-25T19:28:24.596Z,100643.72
2023-02-25T19:30:55.872Z,100645.41
2023-02-25T19:33:25.665Z,100657.44
2023-02-25T19:35:52.816Z,100659.16
2023-02-25T19:38:23.172Z,100656.56
2023-02-25T19:40:49.927Z,100661.66
2023-02-25T19:43:21.375Z,100666.78
2023-02-25T19:45:52.602Z,100669.28
2023-02-25T19:48:19.243Z,100673.53
2023-02-25T19:50:46.324Z,100675.94
2023-02-25T19:53:13.289Z,100669.78
2023-02-25T19:55:42.667Z,100671.44
2023-02-25T19:58:10.000Z,100679.16
2023-02-25T20:00:42.692Z,100684.19
2023-02-25T20:03:12.999Z,100685.03
2023-02-25T20:05:43.315Z,100686.63
2023-02-25T20:08:10.910Z,100688.31
2023-02-25T20:10:43.679Z,100696.03
2023-02-25T20:13:10.228Z,100691.75
2023-02-25T20:15:36.866Z,100690.84
2023-02-25T20:18:03.524Z,100683.81
2023-02-25T20:20:30.548Z,100693.31
2023-02-25T20:22:58.152Z,100694.88
2023-02-25T20:25:25.132Z,100703.63
2023-02-25T20:27:53.019Z,100699.31
2023-02-25T20:30:19.615Z,100698.44
2023-02-25T20:32:46.281Z,100705.25
2023-02-25T20:35:20.916Z,100708.66
2023-02-25T20:38:15.729Z,100706.00
2023-02-25T20:40:42.310Z,100708.47
2023-02-25T20:43:09.937Z,100713.69
2023-02-25T20:45:37.074Z,100718.84
2023-02-25T20:48:03.707Z,100718.78
2023-02-25T20:50:30.800Z,100721.38
2023-02-25T20:52:57.486Z,100726.53
2023-02-25T20:55:24.241Z,100731.72
2023-02-25T20:57:51.645Z,100730.91
2023-02-25T21:00:20.533Z,100734.22
2023-02-25T21:02:47.173Z,100735.84
2023-02-25T21:05:13.726Z,100731.56
2023-02-25T21:07:40.469Z,100737.66
2023-02-25T21:10:07.738Z,100746.25
2023-02-25T21:12:34.287Z,100747.97
2023-02-25T21:15:00.945Z,100744.44
2023-02-25T21:17:27.461Z,100746.97
2023-02-25T21:19:53.898Z,100763.28
2023-02-25T21:22:20.409Z,100758.97
2023-02-25T21:24:46.898Z,100763.25
2023-02-25T21:27:13.385Z,100754.63
2023-02-25T21:29:39.861Z,100765.84
2023-02-25T21:32:06.465Z,100768.28
2023-02-25T21:34:33.165Z,100769.16
2023-02-25T21:36:59.665Z,100762.16
2023-02-25T21:39:28.286Z,100759.63
2023-02-25T21:41:56.365Z,100750.97
2023-02-25T21:44:23.492Z,100747.59
2023-02-25T21:46:50.218Z,100774.19
2023-02-25T21:49:16.950Z,100770.66
2023-02-25T21:51:44.334Z,100776.72
2023-02-25T21:54:11.008Z,100771.53
2023-02-25T21:56:37.705Z,100772.41
2023-02-25T21:59:05.966Z,100774.09
2023-02-25T22:01:35.791Z,100776.69
2023-02-25T22:04:03.292Z,100771.38
2023-02-25T22:06:29.971Z,100766.19
2023-02-25T22:08:57.362Z,100776.53
2023-02-25T22:11:27.387Z,100777.38
2023-02-25T22:13:54.616Z,100776.47
2023-02-25T22:16:23.346Z,100779.91
2023-02-25T22:18:50.967Z,100784.09
2023-02-25T22:21:21.354Z,100784.03
2023-02-25T22:23:49.910Z,100785.63
2023-02-25T22:26:19.734Z,100789.16
2023-02-25T22:28:47.156Z,100802.09
2023-02-25T22:31:16.082Z,100788.28
2023-02-25T22:33:43.744Z,100804.59
2023-02-25T22:36:12.047Z,100802.75
2023-02-25T22:38:42.039Z,100807.06
2023-02-25T22:41:14.908Z,100818.34
2023-02-25T22:43:41.603Z,100818.34
2023-02-25T22:46:24.189Z,100815.72
2023-02-25T22:48:52.599Z,100813.94
2023-02-25T22:51:26.010Z,100821.66
2023-02-25T22:53:53.292Z,100823.34
2023-02-25T22:56:20.131Z,100814.72
2023-02-25T22:58:48.232Z,100816.47
2023-02-25T23:01:17.044Z,100823.38
2023-02-25T23:03:46.351Z,100817.34
2023-02-25T23:06:15.516Z,100823.34
2023-02-25T23:08:43.240Z,100825.78
2023-02-25T23:11:13.587Z,100828.28
2023-02-25T23:13:46.079Z,100822.31
2023-02-25T23:16:15.342Z,100819.69
2023-02-25T23:18:42.609Z,100815.22
2023-02-25T23:21:17.071Z,100819.50
2023-02-25T23:23:44.156Z,100816.88
2023-02-25T23:26:17.597Z,100823.81
2023-02-25T23:28:45.364Z,100821.19
2023-02-25T23:31:23.952Z,100821.91
2023-02-25T23:33:55.984Z,100829.44
2023-02-25T23:36:23.109Z,100829.53
2023-02-25T23:38:54.573Z,100840.63
2023-02-25T23:41:21.116Z,100833.72
2023-02-25T23:43:47.866Z,100831.09
2023-02-25T23:46:14.404Z,100839.72
2023-02-25T23:48:41.022Z,100839.00
2023-02-25T23:51:08.881Z,100845.13
2023-02-25T23:53:36.088Z,100853.63
2023-02-25T23:56:07.589Z,100849.34
2023-02-25T23:58:34.905Z,100846.72
